createdAt,value
2023-01-23T00:00:17.028Z,-1.93
2023-01-23T00:04:00.734Z,-2.01
2023-01-23T00:07:46.506Z,-2.08
2023-01-23T00:11:31.957Z,-2.14
2023-01-23T00:15:14.638Z,-2.15
2023-01-23T00:18:57.639Z,-2.14
2023-01-23T00:22:40.589Z,-2.15
2023-01-23T00:26:25.317Z,-2.15
2023-01-23T00:30:10.966Z,-2.19
2023-01-23T00:33:55.527Z,-2.18
2023-01-23T00:37:38.233Z,-2.23
2023-01-23T00:41:20.897Z,-2.30
2023-01-23T00:45:03.640Z,-2.32
2023-01-23T00:48:47.875Z,-2.40
2023-01-23T00:52:30.694Z,-2.45
2023-01-23T00:56:13.377Z,-2.57
2023-01-23T00:59:56.097Z,-2.60
2023-01-23T01:03:41.805Z,-2.72
2023-01-23T01:07:25.927Z,-2.72
2023-01-23T01:11:09.151Z,-2.68
2023-01-23T01:14:51.789Z,-2.62
2023-01-23T01:18:34.543Z,-2.56
2023-01-23T01:22:17.211Z,-2.48
2023-01-23T01:26:03.885Z,-2.42
2023-01-23T01:29:48.627Z,-2.39
2023-01-23T01:33:31.344Z,-2.37
2023-01-23T01:37:14.039Z,-2.34
2023-01-23T01:40:57.278Z,-2.33
2023-01-23T01:44:55.210Z,-2.27
2023-01-23T01:48:41.267Z,-2.22
2023-01-23T01:52:24.679Z,-2.19
2023-01-23T01:56:09.012Z,-2.15
2023-01-23T01:59:55.761Z,-2.12
2023-01-23T02:03:38.832Z,-2.10
2023-01-23T02:07:25.431Z,-2.08
2023-01-23T02:11:08.748Z,-2.03
2023-01-23T02:14:52.796Z,-2.02
2023-01-23T02:18:37.556Z,-2.01
2023-01-23T02:22:29.275Z,-1.95
2023-01-23T02:26:15.333Z,-1.89
2023-01-23T02:29:58.501Z,-1.93
2023-01-23T02:33:47.578Z,-1.87
2023-01-23T02:37:33.862Z,-1.85
2023-01-23T02:41:19.652Z,-1.78
2023-01-23T02:45:03.476Z,-1.75
2023-01-23T02:48:47.512Z,-1.72
2023-01-23T02:52:31.918Z,-1.73
2023-01-23T02:56:15.441Z,-1.72
2023-01-23T03:00:20.330Z,-1.71
2023-01-23T03:04:04.792Z,-1.70
2023-01-23T03:07:47.602Z,-1.65
2023-01-23T03:11:30.311Z,-1.60
2023-01-23T03:15:14.363Z,-1.56
2023-01-23T03:19:01.429Z,-1.52
2023-01-23T03:22:44.739Z,-1.49
2023-01-23T03:26:27.554Z,-1.46
2023-01-23T03:30:16.161Z,-1.40
2023-01-23T03:34:00.203Z,-1.33
2023-01-23T03:37:43.220Z,-1.32
2023-01-23T03:41:24.988Z,-1.30
2023-01-23T03:45:11.611Z,-1.29
2023-01-23T03:48:54.340Z,-1.31
2023-01-23T03:52:39.023Z,-1.30
2023-01-23T03:56:21.702Z,-1.30
2023-01-23T04:00:05.675Z,-1.25
2023-01-23T04:03:48.534Z,-1.25
2023-01-23T04:07:31.273Z,-1.23
2023-01-23T04:11:15.388Z,-1.21
2023-01-23T04:14:58.325Z,-1.20
2023-01-23T04:18:43.917Z,-1.19
2023-01-23T04:22:26.696Z,-1.17
2023-01-23T04:26:12.289Z,-1.14
2023-01-23T04:29:59.241Z,-1.14
2023-01-23T04:33:41.929Z,-1.10
2023-01-23T04:37:24.580Z,-1.09
2023-01-23T04:41:07.236Z,-1.12
2023-01-23T04:44:49.972Z,-1.13
2023-01-23T04:48:33.974Z,-1.11
2023-01-23T04:52:16.709Z,-1.12
2023-01-23T04:55:59.516Z,-1.09
2023-01-23T04:59:42.237Z,-1.10
2023-01-23T05:03:24.927Z,-1.11
2023-01-23T05:07:11.963Z,-1.09
2023-01-23T05:10:54.995Z,-1.08
2023-01-23T05:14:39.917Z,-1.08
2023-01-23T05:18:22.635Z,-1.07
2023-01-23T05:22:08.168Z,-1.07
2023-01-23T05:25:52.269Z,-1.05
2023-01-23T05:29:34.953Z,-1.02
2023-01-23T05:33:17.642Z,-1.01
2023-01-23T05:37:00.340Z,-1.02
2023-01-23T05:40:43.001Z,-1.02
2023-01-23T05:44:27.023Z,-1.00
2023-01-23T05:48:09.931Z,-0.96
2023-01-23T05:51:52.558Z,-0.94
2023-01-23T05:55:35.344Z,-0.98
2023-01-23T05:59:18.043Z,-1.00
2023-01-23T06:03:02.076Z,-1.00
2023-01-23T06:06:45.002Z,-0.98
2023-01-23T06:10:27.711Z,-0.95
2023-01-23T06:14:10.679Z,-0.93
2023-01-23T06:17:53.389Z,-0.92
2023-01-23T06:21:37.509Z,-0.92
2023-01-23T06:25:21.947Z,-0.97
2023-01-23T06:29:04.694Z,-0.95
2023-01-23T06:32:47.587Z,-0.95
2023-01-23T06:36:30.454Z,-0.97
2023-01-23T06:40:15.870Z,-0.94
2023-01-23T06:43:58.761Z,-0.89
2023-01-23T06:47:41.642Z,-0.94
2023-01-23T06:51:24.665Z,-0.93
2023-01-23T06:55:08.043Z,-0.92
2023-01-23T06:58:52.294Z,-0.94
2023-01-23T07:02:34.970Z,-0.93
2023-01-23T07:06:18.066Z,-0.90
2023-01-23T07:10:01.634Z,-0.91
2023-01-23T07:13:47.985Z,-0.91
2023-01-23T07:17:32.415Z,-0.96
2023-01-23T07:21:15.349Z,-1.01
2023-01-23T07:24:59.239Z,-1.00
2023-01-23T07:28:43.890Z,-1.01
2023-01-23T07:32:27.043Z,-1.00
2023-01-23T07:36:15.587Z,-1.02
2023-01-23T07:40:01.238Z,-1.10
2023-01-23T07:43:44.044Z,-1.14
2023-01-23T07:47:26.712Z,-1.12
2023-01-23T07:51:11.354Z,-1.11
2023-01-23T07:54:54.048Z,-1.04
2023-01-23T07:58:39.775Z,-1.03
2023-01-23T08:02:22.465Z,-1.07
2023-01-23T08:06:05.492Z,-1.03
2023-01-23T08:09:49.532Z,-0.97
2023-01-23T08:13:32.181Z,-0.87
2023-01-23T08:17:15.021Z,-0.92
2023-01-23T08:20:59.571Z,-0.89
2023-01-23T08:24:42.427Z,-0.79
2023-01-23T08:28:26.895Z,-0.81
2023-01-23T08:32:09.663Z,-0.73
2023-01-23T08:35:53.459Z,-0.67
2023-01-23T08:39:36.895Z,-0.70
2023-01-23T08:43:20.585Z,-0.72
2023-01-23T08:47:04.678Z,-0.69
2023-01-23T08:50:47.372Z,-0.66
2023-01-23T08:54:30.292Z,-0.44
2023-01-23T08:58:13.604Z,-0.45
2023-01-23T09:01:56.375Z,-0.39
2023-01-23T09:05:40.467Z,-0.30
2023-01-23T09:09:23.155Z,-0.25
2023-01-23T09:13:06.083Z,-0.18
2023-01-23T09:16:48.873Z,-0.17
2023-01-23T09:20:31.746Z,-0.18
2023-01-23T09:24:15.804Z,-0.20
2023-01-23T09:27:58.482Z,-0.16
2023-01-23T09:31:41.192Z,-0.14
2023-01-23T09:35:24.353Z,-0.01
2023-01-23T09:39:07.047Z,0.06
2023-01-23T09:42:51.474Z,-0.07
2023-01-23T09:46:36.944Z,0.02
2023-01-23T09:50:26.570Z,-0.01
2023-01-23T09:54:17.462Z,-0.03
2023-01-23T09:58:03.449Z,-0.07
2023-01-23T10:01:46.129Z,-0.03
2023-01-23T10:05:32.867Z,-0.05
2023-01-23T10:09:27.568Z,-0.01
2023-01-23T10:13:16.641Z,-0.13
2023-01-23T10:17:08.409Z,-0.17
2023-01-23T10:21:07.352Z,-0.16
2023-01-23T10:24:51.841Z,-0.06
2023-01-23T10:28:38.747Z,-0.10
2023-01-23T10:32:25.981Z,-0.13
2023-01-23T10:36:23.568Z,-0.04
2023-01-23T10:40:11.731Z,-0.11
2023-01-23T10:43:56.991Z,-0.01
2023-01-23T10:47:54.541Z,0.09
2023-01-23T10:51:48.861Z,0.20
2023-01-23T10:55:32.363Z,0.22
2023-01-23T10:59:23.755Z,0.26
2023-01-23T11:03:29.284Z,0.29
2023-01-23T11:07:16.237Z,0.31
2023-01-23T11:11:22.612Z,0.43
2023-01-23T11:15:23.845Z,0.61
2023-01-23T11:19:17.337Z,0.71
2023-01-23T11:23:06.091Z,0.56
2023-01-23T11:26:49.059Z,0.52
2023-01-23T11:30:37.492Z,0.63
2023-01-23T11:34:23.665Z,0.71
2023-01-23T11:38:07.287Z,0.67
2023-01-23T11:41:52.910Z,0.70
2023-01-23T11:45:44.621Z,0.78
2023-01-23T11:49:36.654Z,0.85
2023-01-23T11:53:30.682Z,0.88
2023-01-23T11:57:24.622Z,0.76
2023-01-23T12:01:13.030Z,0.69
2023-01-23T12:05:05.860Z,0.75
2023-01-23T12:08:55.602Z,0.63
2023-01-23T12:12:52.105Z,0.62
2023-01-23T12:16:48.518Z,0.57
2023-01-23T12:20:37.164Z,0.62
2023-01-23T12:24:33.510Z,0.71
2023-01-23T12:28:26.186Z,0.77
2023-01-23T12:32:21.915Z,0.86
2023-01-23T12:36:18.206Z,0.88
2023-01-23T12:40:11.499Z,0.92
2023-01-23T12:43:58.496Z,0.97
2023-01-23T12:47:46.167Z,0.92
2023-01-23T12:51:35.115Z,0.87
2023-01-23T12:55:21.670Z,0.93
2023-01-23T12:59:10.842Z,0.88
2023-01-23T13:02:59.174Z,0.87
2023-01-23T13:07:04.402Z,0.91
2023-01-23T13:11:19.708Z,0.89
2023-01-23T13:15:38.873Z,0.78
2023-01-23T13:19:43.239Z,0.84
2023-01-23T13:23:28.478Z,0.77
2023-01-23T13:27:36.735Z,0.75
2023-01-23T13:31:27.678Z,0.69
2023-01-23T13:35:44.656Z,0.74
2023-01-23T13:39:30.098Z,0.82
2023-01-23T13:43:42.692Z,0.87
2023-01-23T14:20:19.909Z,0.93
2023-01-23T14:24:03.953Z,0.97
2023-01-23T14:27:53.836Z,0.98
2023-01-23T14:31:44.118Z,1.02
2023-01-23T14:35:28.594Z,1.05
2023-01-23T14:39:17.351Z,1.09
2023-01-23T14:43:05.019Z,1.11
2023-01-23T14:46:48.269Z,1.04
2023-01-23T14:50:31.267Z,1.04
2023-01-23T14:54:23.001Z,1.09
2023-01-23T14:58:07.885Z,1.13
2023-01-23T15:02:01.964Z,1.18
2023-01-23T15:05:59.359Z,1.20
2023-01-23T15:09:46.510Z,1.18
2023-01-23T15:13:36.632Z,1.18
2023-01-23T15:17:20.715Z,1.22
2023-01-23T15:21:04.972Z,1.21
2023-01-23T15:24:48.030Z,1.24
2023-01-23T15:28:33.503Z,1.21
2023-01-23T15:32:18.365Z,1.10
2023-01-23T15:36:06.245Z,1.04
2023-01-23T15:39:54.653Z,1.10
2023-01-23T15:43:38.714Z,1.02
2023-01-23T15:47:21.414Z,1.01
2023-01-23T15:51:04.255Z,1.03
2023-01-23T15:54:47.132Z,0.91
2023-01-23T15:58:29.878Z,0.86
2023-01-23T16:02:29.494Z,0.87
2023-01-23T16:06:16.819Z,0.90
2023-01-23T16:09:59.564Z,0.91
2023-01-23T16:13:42.272Z,0.94
2023-01-23T16:17:26.380Z,0.93
2023-01-23T16:21:12.703Z,0.95
2023-01-23T16:24:55.358Z,0.95
2023-01-23T16:28:38.024Z,0.97
2023-01-23T16:32:20.942Z,1.00
2023-01-23T16:36:06.774Z,0.98
2023-01-23T16:39:49.505Z,1.00
2023-01-23T16:43:32.247Z,0.96
2023-01-23T16:47:14.967Z,0.94
2023-01-23T16:51:01.516Z,1.10
2023-01-23T16:54:45.668Z,1.24
2023-01-23T16:58:30.003Z,1.24
2023-01-23T17:02:18.274Z,1.23
2023-01-23T17:06:01.064Z,1.22
2023-01-23T17:09:45.321Z,1.11
2023-01-23T17:13:28.329Z,1.05
2023-01-23T17:17:13.224Z,1.04
2023-01-23T17:20:57.966Z,0.95
2023-01-23T17:24:40.635Z,1.02
2023-01-23T17:28:24.680Z,0.99
2023-01-23T17:32:07.439Z,1.04
2023-01-23T17:35:50.721Z,1.02
2023-01-23T17:39:35.301Z,0.97
2023-01-23T17:43:18.816Z,0.95
2023-01-23T17:47:02.817Z,0.94
2023-01-23T17:50:46.887Z,0.97
2023-01-23T17:54:29.804Z,1.06
2023-01-23T17:58:14.478Z,1.01
2023-01-23T18:01:57.272Z,1.02
2023-01-23T18:05:41.475Z,1.07
2023-01-23T18:09:24.250Z,1.09
2023-01-23T18:13:13.949Z,1.08
2023-01-23T18:16:56.880Z,1.09
2023-01-23T18:20:41.565Z,1.09
2023-01-23T18:24:27.429Z,1.08
2023-01-23T18:28:16.939Z,1.08
2023-01-23T18:32:13.859Z,1.10
2023-01-23T18:36:07.100Z,1.11
2023-01-23T18:39:58.869Z,1.15
2023-01-23T18:43:44.143Z,1.14
2023-01-23T18:47:27.364Z,1.16
2023-01-23T18:51:21.447Z,1.08
2023-01-23T18:55:09.218Z,1.11
2023-01-23T18:59:11.099Z,1.07
2023-01-23T19:02:58.309Z,0.91
2023-01-23T19:06:44.643Z,0.85
2023-01-23T19:10:32.554Z,0.77
2023-01-23T19:14:25.163Z,0.81
2023-01-23T19:18:38.610Z,0.81
2023-01-23T19:22:27.208Z,0.85
2023-01-23T19:26:11.240Z,0.85
2023-01-23T19:29:54.162Z,0.85
2023-01-23T19:33:36.844Z,0.90
2023-01-23T19:37:19.571Z,0.91
2023-01-23T19:41:03.593Z,0.96
2023-01-23T19:44:46.473Z,0.97
2023-01-23T19:48:29.252Z,1.01
2023-01-23T19:52:13.306Z,0.99
2023-01-23T19:55:56.284Z,1.11
2023-01-23T19:59:40.277Z,1.00
2023-01-23T20:03:23.031Z,0.88
2023-01-23T20:07:05.699Z,0.80
2023-01-23T20:10:48.324Z,0.74
2023-01-23T20:14:30.963Z,0.77
2023-01-23T20:18:15.008Z,0.85
2023-01-23T20:21:58.768Z,0.85
2023-01-23T20:25:41.440Z,0.88
2023-01-23T20:29:24.666Z,0.89
2023-01-23T20:33:07.949Z,0.73
2023-01-23T20:36:54.916Z,0.72
2023-01-23T20:40:38.526Z,0.76
2023-01-23T20:44:21.211Z,0.80
2023-01-23T20:48:03.966Z,0.77
2023-01-23T20:51:48.514Z,0.80
2023-01-23T20:55:32.579Z,0.81
2023-01-23T20:59:23.396Z,0.76
2023-01-23T21:03:06.211Z,0.78
2023-01-23T21:06:49.146Z,0.79
2023-01-23T21:10:33.203Z,0.86
2023-01-23T21:14:15.904Z,0.90
2023-01-23T21:17:58.651Z,0.90
2023-01-23T21:21:41.706Z,0.93
2023-01-23T21:25:24.388Z,0.98
2023-01-23T21:29:09.942Z,0.97
2023-01-23T21:32:52.850Z,1.07
2023-01-23T21:36:35.990Z,1.26
2023-01-23T21:40:18.776Z,1.28
2023-01-23T21:44:01.470Z,1.23
2023-01-23T21:47:49.197Z,1.24
2023-01-23T21:51:32.440Z,1.29
2023-01-23T21:55:15.395Z,1.24
2023-01-23T21:58:58.797Z,1.23
2023-01-23T22:02:41.888Z,1.24
2023-01-23T22:06:26.267Z,1.23
2023-01-23T22:10:09.980Z,1.23
2023-01-23T22:13:53.675Z,1.23
2023-01-23T22:17:36.397Z,1.27
2023-01-23T22:21:19.185Z,1.24
2023-01-23T22:25:03.254Z,1.23
2023-01-23T22:28:45.994Z,1.22
2023-01-23T22:32:28.904Z,1.17
2023-01-23T22:36:13.980Z,1.20
2023-01-23T22:39:56.731Z,1.18
2023-01-23T22:43:40.843Z,1.15
2023-01-23T22:47:23.506Z,1.15
2023-01-23T22:51:07.833Z,1.04
2023-01-23T22:54:50.534Z,1.09
2023-01-23T22:58:33.253Z,1.10
2023-01-23T23:02:17.316Z,1.17
2023-01-23T23:06:00.773Z,1.16
2023-01-23T23:09:43.547Z,1.16
2023-01-23T23:13:29.476Z,1.16
2023-01-23T23:17:12.172Z,1.10
2023-01-23T23:20:59.999Z,1.03
2023-01-23T23:24:42.869Z,0.94
2023-01-23T23:28:27.861Z,1.00
2023-01-23T23:32:10.553Z,1.06
2023-01-23T23:35:53.290Z,1.07
2023-01-23T23:39:39.001Z,1.11
2023-01-23T23:43:21.639Z,1.17
2023-01-23T23:47:04.335Z,1.20
2023-01-23T23:50:47.646Z,1.15
2023-01-23T23:54:30.514Z,1.14
2023-01-23T23:58:14.869Z,1.09
